Time;durP1;ratioP1;P1;durP2;ratioP2;P2;SDS_P1;SDS_P2;PMS_P1;PMS_P2;Temp;Humidity;BMP_temperature;BMP_pressure;BME280_temperature;BME280_humidity;BME280_pressure;Samples;Min_cycle;Max_cycle;Signal;HPM_P1;HPM_P2
2023/03/02 00:02:16;;;;;;;;;;;;;;;-2.02;67.39;101933.27;105069;1288;74005;-79
2023/03/02 00:05:02;;;;;;;;;;;;;;;-2.04;67.40;101936.88;105015;1289;68630;-79
2023/03/02 00:07:48;;;;;;;;;;;;;;;-2.08;67.43;101935.82;105104;1288;72352;-79
2023/03/02 00:10:35;;;;;;;;;;;;;;;-2.10;67.46;101937.91;105005;1293;61992;-79
2023/03/02 00:13:21;;;;;;;;;;;;;;;-2.12;67.52;101930.67;104933;1288;60039;-78
2023/03/02 00:16:07;;;;;;;;;;;;;;;-2.12;67.57;101930.02;105148;1290;74064;-79
2023/03/02 00:18:53;;;;;;;;;;;;;;;-2.15;67.53;101926.96;105073;1288;71444;-79
2023/03/02 00:21:40;;;;;;;;;;;;;;;-2.16;67.55;101929.97;105087;1288;72959;-78
2023/03/02 00:24:26;;;;;;;;;;;;;;;-2.15;67.60;101931.84;105061;1288;61933;-79
2023/03/02 00:27:12;;;;;;;;;;;;;;;-2.17;67.62;101930.05;105031;1290;60262;-79
2023/03/02 00:29:59;;;;;;;;;;;;;;;-2.19;67.52;101928.10;105038;1288;78251;-79
2023/03/02 00:32:45;;;;;;;;;;;;;;;-2.20;67.55;101927.86;104964;1288;67445;-79
2023/03/02 00:35:35;;;;;;;;;;;;;;;-2.22;67.55;101930.13;105130;1289;71242;-79
2023/03/02 00:38:21;;;;;;;;;;;;;;;-2.22;67.56;101925.86;104959;1288;61987;-79
2023/03/02 00:41:09;;;;;;;;;;;;;;;-2.23;67.55;101924.11;105102;1288;60383;-79
2023/03/02 00:43:55;;;;;;;;;;;;;;;-2.24;67.62;101923.73;105116;1288;79180;-79
2023/03/02 00:46:42;;;;;;;;;;;;;;;-2.27;67.55;101924.45;104937;1290;68031;-79
2023/03/02 00:49:28;;;;;;;;;;;;;;;-2.32;67.53;101922.27;104968;1289;72399;-78
2023/03/02 00:52:15;;;;;;;;;;;;;;;-2.36;67.59;101921.02;104880;1288;61895;-78
2023/03/02 00:55:01;;;;;;;;;;;;;;;-2.38;67.68;101916.39;104997;1291;61936;-79
2023/03/02 00:57:53;;;;;;;;;;;;;;;-2.36;67.79;101915.14;105091;1288;74049;-78
2023/03/02 01:00:39;;;;;;;;;;;;;;;-2.36;67.71;101908.57;105094;1289;69449;-78
2023/03/02 01:03:25;;;;;;;;;;;;;;;-2.36;67.67;101911.58;105049;1288;72007;-78
2023/03/02 01:06:16;;;;;;;;;;;;;;;-2.38;67.74;101909.42;104985;1293;60643;-78
2023/03/02 01:09:02;;;;;;;;;;;;;;;-2.44;67.61;101903.56;104910;1289;62198;-78
2023/03/02 01:11:48;;;;;;;;;;;;;;;-2.46;67.64;101905.79;104944;1293;75358;-78
2023/03/02 01:14:35;;;;;;;;;;;;;;;-2.46;67.73;101902.91;105124;1288;67425;-78
2023/03/02 01:17:21;;;;;;;;;;;;;;;-2.47;67.79;101903.04;105064;1288;70631;-78
2023/03/02 01:20:10;;;;;;;;;;;;;;;-2.47;67.75;101894.92;104967;1293;62736;-78
2023/03/02 01:22:56;;;;;;;;;;;;;;;-2.50;67.69;101896.77;105076;1288;60395;-78
2023/03/02 01:25:42;;;;;;;;;;;;;;;-2.53;67.74;101895.77;105030;1288;75363;-78
2023/03/02 01:28:29;;;;;;;;;;;;;;;-2.52;67.79;101894.98;105047;1288;67490;-78
2023/03/02 01:31:15;;;;;;;;;;;;;;;-2.54;67.78;101891.66;105071;1288;71446;-78
2023/03/02 01:34:01;;;;;;;;;;;;;;;-2.56;67.77;101897.39;104986;1288;61979;-78
2023/03/02 01:36:47;;;;;;;;;;;;;;;-2.59;67.81;101898.08;104998;1289;60397;-78
2023/03/02 01:39:33;;;;;;;;;;;;;;;-2.60;68.03;101905.15;105055;1293;75445;-78
2023/03/02 01:42:19;;;;;;;;;;;;;;;-2.61;68.05;101904.40;105034;1288;67270;-78
2023/03/02 01:45:26;;;;;;;;;;;;;;;-2.63;67.86;101907.31;104963;1288;72001;-79
2023/03/02 01:48:14;;;;;;;;;;;;;;;-2.68;67.88;101903.21;105076;1292;60282;-78
2023/03/02 01:51:01;;;;;;;;;;;;;;;-2.70;67.84;101900.86;104978;1293;60356;-78
2023/03/02 01:53:50;;;;;;;;;;;;;;;-2.72;67.83;101891.48;105102;1291;74677;-78
2023/03/02 01:56:38;;;;;;;;;;;;;;;-2.75;67.77;101890.10;104933;1291;67381;-78
2023/03/02 01:59:27;;;;;;;;;;;;;;;-2.75;67.90;101885.73;105046;1288;71220;-78
2023/03/02 02:02:14;;;;;;;;;;;;;;;-2.75;67.93;101885.39;104957;1293;62122;-78
2023/03/02 02:05:02;;;;;;;;;;;;;;;-2.76;67.92;101885.66;104974;1288;61937;-78
2023/03/02 02:07:48;;;;;;;;;;;;;;;-2.75;67.90;101884.89;106001;1289;74204;-79
2023/03/02 02:10:34;;;;;;;;;;;;;;;-2.74;67.97;101883.80;105956;1288;67110;-79
2023/03/02 02:13:20;;;;;;;;;;;;;;;-2.72;68.01;101885.41;105982;1288;72141;-79
2023/03/02 02:16:06;;;;;;;;;;;;;;;-2.69;67.96;101884.04;106062;1288;60151;-79
2023/03/02 02:18:52;;;;;;;;;;;;;;;-2.70;68.07;101882.34;105975;1293;60455;-79
2023/03/02 02:21:39;;;;;;;;;;;;;;;-2.67;68.08;101883.33;105966;1290;76462;-79
2023/03/02 02:24:32;;;;;;;;;;;;;;;-2.63;68.11;101882.52;105951;1291;67490;-79
2023/03/02 02:27:18;;;;;;;;;;;;;;;-2.60;68.12;101877.45;106160;1288;71320;-79
2023/03/02 02:30:05;;;;;;;;;;;;;;;-2.57;68.25;101874.75;106146;1288;60006;-79
2023/03/02 02:32:52;;;;;;;;;;;;;;;-2.52;68.36;101875.21;106059;1288;60087;-79
2023/03/02 02:35:39;;;;;;;;;;;;;;;-2.46;68.42;101874.73;106005;1290;75309;-79
2023/03/02 02:38:25;;;;;;;;;;;;;;;-2.39;68.45;101875.77;105725;1293;68627;-79
2023/03/02 02:41:14;;;;;;;;;;;;;;;-2.34;68.55;101866.98;105004;1293;71360;-79
2023/03/02 02:44:00;;;;;;;;;;;;;;;-2.28;68.67;101868.29;105690;1291;61984;-79
2023/03/02 02:46:46;;;;;;;;;;;;;;;-2.24;68.79;101867.00;105056;1288;59911;-79
2023/03/02 02:49:37;;;;;;;;;;;;;;;-2.17;68.79;101868.56;105094;1289;74083;-79
2023/03/02 02:52:25;;;;;;;;;;;;;;;-2.10;68.85;101863.39;104993;1289;67309;-79
2023/03/02 02:55:14;;;;;;;;;;;;;;;-2.03;68.91;101865.14;104817;1290;273760;-79
2023/03/02 02:58:08;;;;;;;;;;;;;;;-1.96;68.92;101864.45;104924;1293;61981;-79
2023/03/02 03:00:54;;;;;;;;;;;;;;;-1.90;69.23;101858.70;105033;1291;60779;-79
2023/03/02 03:03:45;;;;;;;;;;;;;;;-1.79;69.71;101857.81;105048;1292;75217;-79
2023/03/02 03:06:40;;;;;;;;;;;;;;;-1.66;69.99;101858.84;105061;1291;68708;-78
2023/03/02 03:09:28;;;;;;;;;;;;;;;-1.54;70.02;101857.60;104998;1291;71568;-78
2023/03/02 03:12:21;;;;;;;;;;;;;;;-1.43;70.02;101856.48;105051;1289;59905;-78
2023/03/02 03:15:08;;;;;;;;;;;;;;;-1.33;70.14;101857.17;104890;1289;62040;-78
2023/03/02 03:17:55;;;;;;;;;;;;;;;-1.24;70.15;101857.99;104979;1288;74234;-78
2023/03/02 03:20:41;;;;;;;;;;;;;;;-1.14;70.31;101860.05;104956;1290;67283;-78
2023/03/02 03:23:28;;;;;;;;;;;;;;;-1.05;70.27;101857.94;104908;1288;71353;-78
2023/03/02 03:26:14;;;;;;;;;;;;;;;-0.97;70.19;101857.66;104942;1291;60260;-78
2023/03/02 03:29:01;;;;;;;;;;;;;;;-0.91;70.33;101860.14;104901;1293;61865;-78
2023/03/02 03:31:47;;;;;;;;;;;;;;;-0.85;70.49;101864.34;104957;1293;75300;-79
2023/03/02 03:34:39;;;;;;;;;;;;;;;-0.80;70.61;101860.54;104869;1288;67623;-79
2023/03/02 03:37:25;;;;;;;;;;;;;;;-0.75;70.48;101864.17;105030;1288;72240;-79
2023/03/02 03:40:11;;;;;;;;;;;;;;;-0.72;70.64;101868.06;104927;1288;61991;-79
2023/03/02 03:42:57;;;;;;;;;;;;;;;-0.68;70.60;101864.21;104937;1296;62359;-79
2023/03/02 03:45:43;;;;;;;;;;;;;;;-0.64;70.88;101870.48;105076;1289;76754;-78
2023/03/02 03:48:29;;;;;;;;;;;;;;;-0.62;70.77;101870.24;104841;1291;69948;-78
2023/03/02 03:51:16;;;;;;;;;;;;;;;-0.58;70.67;101871.27;104888;1294;73941;-78
2023/03/02 03:54:03;;;;;;;;;;;;;;;-0.55;70.61;101868.20;104955;1288;62035;-78
2023/03/02 03:56:49;;;;;;;;;;;;;;;-0.54;70.59;101871.67;104896;1290;60783;-79
2023/03/02 03:59:36;;;;;;;;;;;;;;;-0.51;70.70;101871.61;104973;1288;74947;-79
2023/03/02 04:02:22;;;;;;;;;;;;;;;-0.49;70.80;101876.63;104896;1291;67133;-79
2023/03/02 04:05:08;;;;;;;;;;;;;;;-0.48;70.71;101876.84;104972;1289;71399;-79
2023/03/02 04:07:54;;;;;;;;;;;;;;;-0.47;70.93;101877.71;104896;1293;61903;-79
2023/03/02 04:10:41;;;;;;;;;;;;;;;-0.46;70.97;101879.80;104936;1293;62036;-79
2023/03/02 04:13:27;;;;;;;;;;;;;;;-0.43;70.96;101882.02;105019;1288;75557;-79
2023/03/02 04:16:13;;;;;;;;;;;;;;;-0.40;71.03;101881.64;104894;1291;67011;-79
2023/03/02 04:18:59;;;;;;;;;;;;;;;-0.38;71.07;101881.75;104967;1288;72129;-79
2023/03/02 04:21:47;;;;;;;;;;;;;;;-0.35;71.14;101882.39;104790;1293;60555;-79
2023/03/02 04:24:34;;;;;;;;;;;;;;;-0.33;71.02;101877.58;104884;1288;61925;-79
2023/03/02 04:27:20;;;;;;;;;;;;;;;-0.30;71.13;101871.09;104831;1289;77252;-78
2023/03/02 04:30:07;;;;;;;;;;;;;;;-0.29;71.13;101873.17;104847;1288;68286;-79
2023/03/02 04:32:53;;;;;;;;;;;;;;;-0.31;71.20;101874.23;104851;1293;73377;-79
2023/03/02 04:35:39;;;;;;;;;;;;;;;-0.32;71.20;101869.48;104907;1290;60549;-79
2023/03/02 04:38:28;;;;;;;;;;;;;;;-0.30;71.25;101868.52;104886;1288;61105;-79
2023/03/02 04:41:15;;;;;;;;;;;;;;;-0.29;71.24;101873.16;104991;1291;74083;-79
2023/03/02 04:44:01;;;;;;;;;;;;;;;-0.30;71.20;101869.58;104946;1288;68489;-79
2023/03/02 04:46:48;;;;;;;;;;;;;;;-0.30;71.21;101866.33;104936;1288;71162;-79
2023/03/02 04:49:34;;;;;;;;;;;;;;;-0.31;71.41;101866.48;104827;1288;62018;-79
2023/03/02 04:52:20;;;;;;;;;;;;;;;-0.30;71.36;101865.15;104880;1288;63116;-79
2023/03/02 04:55:07;;;;;;;;;;;;;;;-0.30;71.40;101866.52;104974;1293;74038;-79
2023/03/02 04:57:54;;;;;;;;;;;;;;;-0.28;71.37;101866.26;104973;1288;67266;-79
2023/03/02 05:00:40;;;;;;;;;;;;;;;-0.28;71.34;101873.89;104861;1289;70349;-79
2023/03/02 05:03:26;;;;;;;;;;;;;;;-0.28;71.43;101876.95;104909;1288;62068;-79
2023/03/02 05:06:13;;;;;;;;;;;;;;;-0.29;71.48;101875.04;104836;1289;61969;-79
2023/03/02 05:08:59;;;;;;;;;;;;;;;-0.30;71.41;101877.37;104853;1288;75431;-79
2023/03/02 05:11:45;;;;;;;;;;;;;;;-0.31;71.43;101877.83;104822;1288;69073;-79
2023/03/02 05:14:32;;;;;;;;;;;;;;;-0.32;71.34;101879.11;104835;1288;71467;-78
2023/03/02 05:17:18;;;;;;;;;;;;;;;-0.34;71.47;101880.73;104910;1288;62010;-77
2023/03/02 05:20:06;;;;;;;;;;;;;;;-0.36;71.75;101879.13;105032;1288;60571;-77
2023/03/02 05:22:53;;;;;;;;;;;;;;;-0.37;71.59;101882.62;105095;1288;75900;-77
2023/03/02 05:25:39;;;;;;;;;;;;;;;-0.38;71.65;101880.71;106000;1288;67929;-77
2023/03/02 05:28:26;;;;;;;;;;;;;;;-0.36;71.73;101883.85;106080;1291;72608;-78
2023/03/02 05:31:33;;;;;;;;;;;;;;;-0.34;71.64;101890.89;105953;1293;60083;-78
2023/03/02 05:34:20;;;;;;;;;;;;;;;-0.35;71.79;101891.53;106051;1289;59815;-78
2023/03/02 05:37:06;;;;;;;;;;;;;;;-0.33;71.86;101893.15;106008;1289;74871;-78
2023/03/02 05:39:52;;;;;;;;;;;;;;;-0.30;71.92;101894.29;106015;1288;68277;-78
2023/03/02 05:42:38;;;;;;;;;;;;;;;-0.27;71.89;101895.80;106054;1291;73566;-78
2023/03/02 05:45:29;;;;;;;;;;;;;;;-0.22;71.92;101896.54;105972;1293;59885;-77
2023/03/02 05:48:15;;;;;;;;;;;;;;;-0.20;72.01;101896.84;106005;1289;60205;-77
2023/03/02 05:51:01;;;;;;;;;;;;;;;-0.18;72.01;101897.74;106067;1288;75349;-77
2023/03/02 05:53:47;;;;;;;;;;;;;;;-0.16;72.00;101898.72;105213;1288;68211;-77
2023/03/02 05:56:33;;;;;;;;;;;;;;;-0.16;72.02;101897.86;105000;1288;71249;-77
2023/03/02 05:59:20;;;;;;;;;;;;;;;-0.15;72.20;101891.98;105019;1288;62810;-76
2023/03/02 06:02:06;;;;;;;;;;;;;;;-0.14;72.10;101888.83;105109;1289;62053;-76
2023/03/02 06:04:52;;;;;;;;;;;;;;;-0.12;72.26;101889.90;105102;1293;75443;-76
2023/03/02 06:07:39;;;;;;;;;;;;;;;-0.12;72.21;101890.45;104893;1288;68168;-76
2023/03/02 06:10:25;;;;;;;;;;;;;;;-0.10;72.30;101888.16;104982;1288;72276;-76
2023/03/02 06:13:11;;;;;;;;;;;;;;;-0.06;72.34;101890.05;105058;1293;60339;-75
2023/03/02 06:15:57;;;;;;;;;;;;;;;-0.02;72.42;101889.40;104895;1289;61936;-76
2023/03/02 06:18:43;;;;;;;;;;;;;;;0.02;72.34;101891.92;105012;1290;74568;-76
2023/03/02 06:21:30;;;;;;;;;;;;;;;0.05;72.34;101899.19;105066;1290;67379;-76
2023/03/02 06:24:16;;;;;;;;;;;;;;;0.07;72.29;101905.70;104979;1292;72560;-75
2023/03/02 06:27:02;;;;;;;;;;;;;;;0.09;72.34;101907.86;105048;1292;62083;-80
2023/03/02 06:29:49;;;;;;;;;;;;;;;0.11;72.38;101911.66;105009;1294;60219;-73
2023/03/02 06:32:35;;;;;;;;;;;;;;;0.13;72.26;101915.80;105033;1293;74084;-74
2023/03/02 06:35:22;;;;;;;;;;;;;;;0.14;72.33;101917.06;104951;1292;69010;-78
2023/03/02 06:38:08;;;;;;;;;;;;;;;0.16;72.42;101921.72;104942;1294;74120;-74
2023/03/02 06:40:55;;;;;;;;;;;;;;;0.18;72.47;101922.67;104923;1288;62097;-73
2023/03/02 06:43:41;;;;;;;;;;;;;;;0.21;72.53;101925.69;105046;1290;60356;-74
2023/03/02 06:46:27;;;;;;;;;;;;;;;0.23;72.48;101931.91;105118;1293;76039;-74
2023/03/02 06:49:13;;;;;;;;;;;;;;;0.25;72.62;101932.17;105072;1294;68164;-74
2023/03/02 06:51:59;;;;;;;;;;;;;;;0.28;72.63;101932.33;104841;1290;72960;-73
2023/03/02 06:54:45;;;;;;;;;;;;;;;0.31;72.64;101934.66;105151;1289;62071;-73
2023/03/02 06:57:34;;;;;;;;;;;;;;;0.33;72.73;101935.11;104948;1290;61962;-72
2023/03/02 07:00:25;;;;;;;;;;;;;;;0.36;72.71;101936.24;104901;1289;73997;-75
2023/03/02 07:03:11;;;;;;;;;;;;;;;0.39;72.69;101938.76;105057;1289;67389;-71
2023/03/02 07:05:57;;;;;;;;;;;;;;;0.42;72.69;101937.55;105103;1293;71610;-70
2023/03/02 07:08:45;;;;;;;;;;;;;;;0.44;72.77;101937.64;105075;1289;60676;-70
2023/03/02 07:11:32;;;;;;;;;;;;;;;0.46;72.70;101940.14;104976;1292;60550;-72
2023/03/02 07:14:18;;;;;;;;;;;;;;;0.46;72.76;101936.02;104901;1289;75181;-75
2023/03/02 07:17:04;;;;;;;;;;;;;;;0.48;72.74;101936.66;105019;1289;68498;-71
2023/03/02 07:19:50;;;;;;;;;;;;;;;0.51;72.80;101931.17;104920;1289;71364;-71
2023/03/02 07:22:36;;;;;;;;;;;;;;;0.53;72.69;101925.31;104944;1288;61947;-72
2023/03/02 07:25:23;;;;;;;;;;;;;;;0.54;72.74;101928.24;104883;1290;64598;-72
2023/03/02 07:28:09;;;;;;;;;;;;;;;0.54;72.86;101931.83;104991;1289;76806;-72
2023/03/02 07:30:55;;;;;;;;;;;;;;;0.53;72.66;101934.31;104999;1293;67173;-73
2023/03/02 07:33:41;;;;;;;;;;;;;;;0.53;72.81;101932.45;104969;1294;70860;-71
2023/03/02 07:36:27;;;;;;;;;;;;;;;0.55;72.94;101929.30;104887;1289;60126;-70
2023/03/02 07:39:13;;;;;;;;;;;;;;;0.56;72.91;101931.55;104923;1292;61994;-70
2023/03/02 07:42:00;;;;;;;;;;;;;;;0.58;72.86;101929.59;104911;1289;75999;-70
2023/03/02 07:44:46;;;;;;;;;;;;;;;0.60;72.96;101929.21;104767;1288;66153;-70
2023/03/02 07:47:32;;;;;;;;;;;;;;;0.63;72.93;101928.84;104807;1289;72888;-70
2023/03/02 07:50:18;;;;;;;;;;;;;;;0.66;72.95;101928.27;104745;1294;61898;-70
2023/03/02 07:53:05;;;;;;;;;;;;;;;0.69;72.87;101930.24;104878;1292;61945;-70
2023/03/02 07:55:51;;;;;;;;;;;;;;;0.66;73.01;101929.15;104791;1290;76820;-70
2023/03/02 07:58:37;;;;;;;;;;;;;;;0.66;73.00;101930.48;104975;1289;68523;-72
2023/03/02 08:01:23;;;;;;;;;;;;;;;0.68;72.95;101932.11;104955;1289;71440;-71
2023/03/02 08:04:10;;;;;;;;;;;;;;;0.72;73.02;101927.38;104887;1289;60221;-71
2023/03/02 08:06:56;;;;;;;;;;;;;;;0.74;72.93;101926.75;104965;1292;62229;-71
2023/03/02 08:09:42;;;;;;;;;;;;;;;0.74;73.00;101925.23;105056;1288;76859;-71
2023/03/02 08:12:28;;;;;;;;;;;;;;;0.75;72.93;101919.85;105038;1288;67320;-71
2023/03/02 08:15:14;;;;;;;;;;;;;;;0.78;72.96;101917.98;105013;1289;72588;-71
2023/03/02 08:18:00;;;;;;;;;;;;;;;0.82;73.01;101916.95;105062;1293;62161;-71
2023/03/02 08:20:46;;;;;;;;;;;;;;;0.80;73.03;101912.63;104950;1290;61869;-71
2023/03/02 08:23:32;;;;;;;;;;;;;;;0.81;73.03;101906.20;105071;1289;74083;-71
2023/03/02 08:26:19;;;;;;;;;;;;;;;0.83;72.99;101906.14;105047;1293;68507;-71
2023/03/02 08:29:05;;;;;;;;;;;;;;;0.86;73.13;101902.54;104970;1288;73749;-71
2023/03/02 08:31:52;;;;;;;;;;;;;;;0.88;73.03;101901.10;105010;1288;62086;-71
2023/03/02 08:34:38;;;;;;;;;;;;;;;0.91;73.07;101899.88;105118;1292;61919;-73
2023/03/02 08:37:24;;;;;;;;;;;;;;;0.94;73.02;101892.36;104943;1289;76118;-71
2023/03/02 08:40:10;;;;;;;;;;;;;;;0.98;73.10;101886.95;104940;1288;70041;-71
2023/03/02 08:42:57;;;;;;;;;;;;;;;1.01;73.14;101887.41;104954;1291;71201;-71
2023/03/02 08:45:44;;;;;;;;;;;;;;;1.05;73.17;101885.33;104939;1290;61929;-71
2023/03/02 08:48:30;;;;;;;;;;;;;;;1.09;73.27;101886.16;104959;1294;62058;-71
2023/03/02 08:51:20;;;;;;;;;;;;;;;1.12;73.13;101883.41;104987;1293;75337;-71
2023/03/02 08:54:06;;;;;;;;;;;;;;;1.08;73.08;101885.95;104946;1289;69602;-71
2023/03/02 08:56:52;;;;;;;;;;;;;;;1.04;73.17;101886.14;104857;1296;72879;-71
2023/03/02 08:59:38;;;;;;;;;;;;;;;1.02;73.22;101881.30;104871;1295;62142;-71
2023/03/02 09:02:25;;;;;;;;;;;;;;;1.05;73.15;101875.67;104867;1288;60045;-71
2023/03/02 09:05:11;;;;;;;;;;;;;;;1.08;73.21;101877.48;104923;1293;75502;-71
2023/03/02 09:07:57;;;;;;;;;;;;;;;1.10;73.25;101874.66;104912;1288;67321;-71
2023/03/02 09:10:43;;;;;;;;;;;;;;;1.12;73.33;101871.89;104854;1288;73299;-71
2023/03/02 09:13:29;;;;;;;;;;;;;;;1.13;73.37;101865.15;104884;1288;68642;-71
2023/03/02 09:16:15;;;;;;;;;;;;;;;1.15;73.19;101867.24;104954;1288;63225;-71
2023/03/02 09:19:02;;;;;;;;;;;;;;;1.15;73.30;101865.73;104912;1288;74040;-71
2023/03/02 09:21:48;;;;;;;;;;;;;;;1.18;73.45;101865.84;104785;1292;67221;-71
2023/03/02 09:24:35;;;;;;;;;;;;;;;1.22;73.38;101868.90;104886;1292;71872;-71
2023/03/02 09:27:21;;;;;;;;;;;;;;;1.26;73.40;101865.00;104920;1290;62149;-71
2023/03/02 09:30:08;;;;;;;;;;;;;;;1.29;73.33;101862.27;105070;1292;62136;-71
2023/03/02 09:32:54;;;;;;;;;;;;;;;1.29;73.27;101860.71;105865;1290;75732;-71
2023/03/02 09:35:40;;;;;;;;;;;;;;;1.29;73.30;101862.27;106062;1290;68208;-71
2023/03/02 09:38:27;;;;;;;;;;;;;;;1.35;73.45;101862.64;105958;1289;71461;-72
2023/03/02 09:41:19;;;;;;;;;;;;;;;1.40;73.39;101865.07;105977;1290;60299;-72
2023/03/02 09:44:24;;;;;;;;;;;;;;;1.41;73.32;101867.14;105996;1292;59738;-72
2023/03/02 09:47:16;;;;;;;;;;;;;;;1.44;73.33;101867.28;104880;1294;74912;-71
2023/03/02 09:50:21;;;;;;;;;;;;;;;1.51;73.40;101868.60;105024;1289;68466;-71
2023/03/02 09:53:14;;;;;;;;;;;;;;;1.58;73.33;101866.83;104937;1289;71359;-71
2023/03/02 09:56:01;;;;;;;;;;;;;;;1.62;73.41;101869.38;104912;1293;61804;-71
2023/03/02 09:58:51;;;;;;;;;;;;;;;1.67;73.45;101867.84;104860;1293;63144;-71
2023/03/02 10:01:45;;;;;;;;;;;;;;;1.70;73.40;101867.96;104849;1291;74279;-71
2023/03/02 10:04:42;;;;;;;;;;;;;;;1.74;73.45;101871.37;104953;1291;67339;-71
2023/03/02 10:07:28;;;;;;;;;;;;;;;1.76;73.40;101868.21;104946;1291;73673;-72
2023/03/02 10:10:34;;;;;;;;;;;;;;;1.74;73.40;101871.17;106024;1289;61918;-72
2023/03/02 10:13:22;;;;;;;;;;;;;;;1.76;73.41;101869.42;105700;1290;60489;-72
2023/03/02 10:16:14;;;;;;;;;;;;;;;1.78;73.44;101866.95;104977;1289;74789;-72
2023/03/02 10:19:05;;;;;;;;;;;;;;;1.81;73.44;101868.74;104957;1289;70094;-71
2023/03/02 10:22:00;;;;;;;;;;;;;;;1.83;73.37;101867.30;104880;1291;72999;-71
2023/03/02 10:24:56;;;;;;;;;;;;;;;1.83;73.32;101865.77;104937;1289;61931;-72
2023/03/02 10:27:49;;;;;;;;;;;;;;;1.82;73.40;101866.91;104941;1289;63826;-72
2023/03/02 10:30:36;;;;;;;;;;;;;;;1.81;73.40;101864.52;105040;1291;76786;-71
2023/03/02 10:33:22;;;;;;;;;;;;;;;1.83;73.44;101868.66;104933;1289;69972;-71
2023/03/02 10:36:20;;;;;;;;;;;;;;;1.86;73.43;101863.67;104850;1289;71654;-71
2023/03/02 10:39:11;;;;;;;;;;;;;;;1.87;73.45;101863.40;105023;1289;62060;-71
2023/03/02 10:42:01;;;;;;;;;;;;;;;1.86;73.40;101859.45;104987;1290;60303;-71
2023/03/02 10:44:49;;;;;;;;;;;;;;;1.78;73.41;101855.70;104915;1293;75540;-71
2023/03/02 10:47:35;;;;;;;;;;;;;;;1.75;73.52;101852.71;104962;1290;67952;-71
2023/03/02 10:50:22;;;;;;;;;;;;;;;1.76;73.51;101851.39;104971;1288;76248;-71
2023/03/02 10:53:16;;;;;;;;;;;;;;;1.76;73.50;101853.06;104885;1290;61937;-71
2023/03/02 10:56:04;;;;;;;;;;;;;;;1.72;73.44;101850.86;104893;1291;60278;-71
2023/03/02 10:58:50;;;;;;;;;;;;;;;1.64;73.51;101851.44;105700;1289;308980;-72
2023/03/02 11:01:36;;;;;;;;;;;;;;;1.67;73.59;101848.13;106033;1288;67249;-72
2023/03/02 11:04:22;;;;;;;;;;;;;;;1.72;73.60;101847.48;104918;1289;72970;-71
2023/03/02 11:07:11;;;;;;;;;;;;;;;1.76;73.56;101844.58;105092;1292;61841;-72
2023/03/02 11:10:16;;;;;;;;;;;;;;;1.79;73.61;101842.83;105367;1291;62466;-72
2023/03/02 11:13:15;;;;;;;;;;;;;;;1.83;73.62;101842.32;105025;1291;74777;-71
2023/03/02 11:16:16;;;;;;;;;;;;;;;1.85;73.49;101845.96;105099;1288;69253;-71
2023/03/02 11:19:07;;;;;;;;;;;;;;;1.83;73.52;101845.04;105093;1289;72502;-71
2023/03/02 11:21:58;;;;;;;;;;;;;;;1.83;73.50;101843.86;104977;1291;61029;-71
2023/03/02 11:24:48;;;;;;;;;;;;;;;1.84;73.51;101844.92;105074;1288;62057;-71
2023/03/02 11:27:38;;;;;;;;;;;;;;;1.82;73.50;101841.96;105042;1288;74905;-71
2023/03/02 11:30:25;;;;;;;;;;;;;;;1.84;73.50;101843.73;105038;1288;72614;-71
2023/03/02 11:33:16;;;;;;;;;;;;;;;1.85;73.47;101837.98;104971;1288;72145;-71
2023/03/02 11:36:07;;;;;;;;;;;;;;;1.85;73.52;101840.02;104871;1289;60790;-71
2023/03/02 11:38:53;;;;;;;;;;;;;;;1.83;73.49;101837.22;104837;1288;59925;-71
2023/03/02 11:41:40;;;;;;;;;;;;;;;1.83;73.64;101837.05;104860;1290;75672;-71
2023/03/02 11:44:27;;;;;;;;;;;;;;;1.88;73.65;101836.90;105004;1288;68117;-71
2023/03/02 11:47:14;;;;;;;;;;;;;;;1.89;73.46;101837.47;104898;1292;72098;-71
2023/03/02 11:50:04;;;;;;;;;;;;;;;1.87;73.45;101832.27;104883;1292;61907;-71
2023/03/02 11:52:58;;;;;;;;;;;;;;;1.84;73.47;101827.91;104875;1288;61466;-71
2023/03/02 11:55:47;;;;;;;;;;;;;;;1.86;73.51;101825.63;104916;1290;73042;-71
2023/03/02 11:58:33;;;;;;;;;;;;;;;1.89;73.62;101825.23;104910;1288;67213;-71
2023/03/02 12:01:21;;;;;;;;;;;;;;;1.94;73.66;101822.36;105046;1289;72542;-71
2023/03/02 12:04:25;;;;;;;;;;;;;;;1.98;73.57;101820.45;104914;1290;61842;-71
2023/03/02 12:07:16;;;;;;;;;;;;;;;1.99;73.60;101819.83;104989;1289;62141;-71
2023/03/02 12:10:07;;;;;;;;;;;;;;;1.98;73.43;101817.05;104904;1288;76770;-71
2023/03/02 12:12:59;;;;;;;;;;;;;;;1.97;73.44;101815.34;104828;1288;66488;-71
2023/03/02 12:15:48;;;;;;;;;;;;;;;1.91;73.35;101814.92;104977;1288;72841;-71
2023/03/02 12:18:34;;;;;;;;;;;;;;;1.87;73.41;101814.08;104982;1288;60253;-71
2023/03/02 12:21:22;;;;;;;;;;;;;;;1.88;73.59;101809.02;104943;1291;60555;-71
2023/03/02 12:24:22;;;;;;;;;;;;;;;1.90;73.64;101800.28;105013;1288;74097;-71
2023/03/02 12:27:34;;;;;;;;;;;;;;;1.91;73.55;101796.06;104963;1293;67168;-71
2023/03/02 12:30:24;;;;;;;;;;;;;;;1.90;73.58;101795.00;104536;1296;71321;-71
2023/03/02 12:33:18;;;;;;;;;;;;;;;1.90;73.69;101790.40;104432;1294;61942;-71
2023/03/02 12:36:15;;;;;;;;;;;;;;;1.91;73.73;101783.11;104525;1294;59814;-71
2023/03/02 12:39:20;;;;;;;;;;;;;;;1.93;73.71;101779.46;104557;1294;73620;-71
2023/03/02 12:42:33;;;;;;;;;;;;;;;1.90;73.62;101778.66;97030;1297;5003699;-71
2023/03/02 12:45:38;;;;;;;;;;;;;;;1.90;73.67;101769.83;104485;1297;74530;-71
2023/03/02 12:48:28;;;;;;;;;;;;;;;1.92;73.81;101764.98;104480;1293;62390;-71
2023/03/02 12:51:20;;;;;;;;;;;;;;;1.96;73.70;101763.23;104588;1294;62025;-71
2023/03/02 12:54:12;;;;;;;;;;;;;;;1.96;73.66;101758.84;104479;1296;74242;-73
2023/03/02 12:57:01;;;;;;;;;;;;;;;1.95;73.72;101756.95;104627;1293;70875;-73
2023/03/02 12:59:52;;;;;;;;;;;;;;;1.97;73.78;101756.17;104565;1294;72513;-73
2023/03/02 13:02:44;;;;;;;;;;;;;;;1.98;73.69;101754.82;104469;1294;62049;-73
2023/03/02 13:05:32;;;;;;;;;;;;;;;1.95;73.60;101755.23;104397;1294;61975;-71
2023/03/02 13:08:26;;;;;;;;;;;;;;;1.90;73.52;101751.14;104882;1293;76853;-71
2023/03/02 13:11:13;;;;;;;;;;;;;;;1.85;73.50;101749.40;105002;1289;67906;-71
2023/03/02 13:14:02;;;;;;;;;;;;;;;1.83;73.58;101750.50;104971;1288;72585;-71
2023/03/02 13:16:54;;;;;;;;;;;;;;;1.84;73.69;101748.16;104886;1291;62035;-71
2023/03/02 13:19:40;;;;;;;;;;;;;;;1.86;73.64;101747.73;104865;1290;60098;-71
2023/03/02 13:22:27;;;;;;;;;;;;;;;1.86;73.62;101743.16;104844;1287;75258;-71
2023/03/02 13:25:25;;;;;;;;;;;;;;;1.86;73.65;101739.91;104964;1288;67559;-71
2023/03/02 13:28:24;;;;;;;;;;;;;;;1.86;73.70;101732.45;104918;1288;71342;-71
2023/03/02 13:31:20;;;;;;;;;;;;;;;1.84;73.68;101731.17;104914;1288;63238;-71
2023/03/02 13:34:17;;;;;;;;;;;;;;;1.87;73.81;101724.64;104915;1289;61913;-71
2023/03/02 13:37:16;;;;;;;;;;;;;;;1.89;73.74;101720.98;104760;1288;76855;-71
2023/03/02 13:40:04;;;;;;;;;;;;;;;1.90;73.77;101717.95;104856;1289;67062;-71
2023/03/02 13:42:50;;;;;;;;;;;;;;;1.91;73.73;101715.13;104860;1288;71360;-71
2023/03/02 13:45:37;;;;;;;;;;;;;;;1.94;73.75;101711.48;104814;1288;62041;-71
2023/03/02 13:48:23;;;;;;;;;;;;;;;1.94;73.80;101707.23;104909;1290;61964;-71
2023/03/02 13:51:16;;;;;;;;;;;;;;;1.96;73.81;101703.57;104885;1293;75417;-71
2023/03/02 13:54:05;;;;;;;;;;;;;;;1.93;73.72;101701.07;104941;1288;68025;-73
2023/03/02 13:56:52;;;;;;;;;;;;;;;1.92;73.79;101695.77;104870;1288;72164;-73
2023/03/02 13:59:38;;;;;;;;;;;;;;;1.92;73.73;101695.77;104853;1289;61968;-74
2023/03/02 14:02:26;;;;;;;;;;;;;;;1.91;73.75;101689.10;104961;1291;61539;-74
2023/03/02 14:05:16;;;;;;;;;;;;;;;1.91;73.79;101686.21;104955;1290;73252;-71
2023/03/02 14:08:04;;;;;;;;;;;;;;;1.91;73.85;101680.28;104866;1288;68890;-71
2023/03/02 14:10:52;;;;;;;;;;;;;;;1.92;73.76;101672.13;104907;1289;71311;-71
2023/03/02 14:13:46;;;;;;;;;;;;;;;1.95;73.88;101668.65;104849;1288;61984;-71
2023/03/02 14:16:34;;;;;;;;;;;;;;;1.97;73.81;101668.06;104865;1288;63258;-71
2023/03/02 14:19:21;;;;;;;;;;;;;;;1.97;73.78;101664.65;104958;1288;75019;-71
2023/03/02 14:22:10;;;;;;;;;;;;;;;1.95;73.71;101663.58;104860;1288;67296;-71